sensor_id;sensor_type;location;lat;lon;timestamp;P1;durP1;ratioP1;P2;durP2;ratioP2
42972;SDS011;28610;51.214;6.962;2023-04-24T00:00:44;2.80;;;2.50;;
42972;SDS011;28610;51.214;6.962;2023-04-24T00:03:29;4.17;;;2.80;;
42972;SDS011;28610;51.214;6.962;2023-04-24T00:06:16;3.10;;;2.80;;
42972;SDS011;28610;51.214;6.962;2023-04-24T00:09:03;3.47;;;2.80;;
42972;SDS011;28610;51.214;6.962;2023-04-24T00:11:49;3.13;;;2.90;;
42972;SDS011;28610;51.214;6.962;2023-04-24T00:14:34;4.30;;;3.00;;
42972;SDS011;28610;51.214;6.962;2023-04-24T00:17:20;4.27;;;3.00;;
42972;SDS011;28610;51.214;6.962;2023-04-24T00:20:06;4.57;;;3.40;;
42972;SDS011;28610;51.214;6.962;2023-04-24T00:22:54;4.37;;;2.93;;
42972;SDS011;28610;51.214;6.962;2023-04-24T00:25:41;4.00;;;3.10;;
42972;SDS011;28610;51.214;6.962;2023-04-24T00:28:26;3.13;;;2.90;;
42972;SDS011;28610;51.214;6.962;2023-04-24T00:31:12;4.73;;;3.10;;
42972;SDS011;28610;51.214;6.962;2023-04-24T00:33:57;5.00;;;3.00;;
42972;SDS011;28610;51.214;6.962;2023-04-24T00:36:43;4.03;;;3.20;;
42972;SDS011;28610;51.214;6.962;2023-04-24T00:39:29;4.57;;;3.30;;
42972;SDS011;28610;51.214;6.962;2023-04-24T00:42:16;7.33;;;3.40;;
42972;SDS011;28610;51.214;6.962;2023-04-24T00:45:02;4.80;;;3.03;;
42972;SDS011;28610;51.214;6.962;2023-04-24T00:47:48;3.17;;;2.93;;
42972;SDS011;28610;51.214;6.962;2023-04-24T00:50:35;5.87;;;3.07;;
42972;SDS011;28610;51.214;6.962;2023-04-24T00:53:21;3.23;;;2.87;;
42972;SDS011;28610;51.214;6.962;2023-04-24T00:56:07;3.97;;;2.90;;
42972;SDS011;28610;51.214;6.962;2023-04-24T00:58:54;6.50;;;3.50;;
42972;SDS011;28610;51.214;6.962;2023-04-24T01:01:40;4.53;;;3.27;;
42972;SDS011;28610;51.214;6.962;2023-04-24T01:04:26;3.50;;;3.07;;
42972;SDS011;28610;51.214;6.962;2023-04-24T01:07:12;3.33;;;3.00;;
42972;SDS011;28610;51.214;6.962;2023-04-24T01:09:57;4.07;;;3.50;;
42972;SDS011;28610;51.214;6.962;2023-04-24T01:12:43;6.43;;;3.60;;
42972;SDS011;28610;51.214;6.962;2023-04-24T01:15:30;5.57;;;3.67;;
42972;SDS011;28610;51.214;6.962;2023-04-24T01:18:16;8.43;;;3.40;;
42972;SDS011;28610;51.214;6.962;2023-04-24T01:21:02;4.93;;;3.53;;
42972;SDS011;28610;51.214;6.962;2023-04-24T01:23:50;6.93;;;3.30;;
42972;SDS011;28610;51.214;6.962;2023-04-24T01:26:36;4.53;;;3.40;;
42972;SDS011;28610;51.214;6.962;2023-04-24T01:29:22;3.83;;;3.47;;
42972;SDS011;28610;51.214;6.962;2023-04-24T01:32:08;8.27;;;4.60;;
42972;SDS011;28610;51.214;6.962;2023-04-24T01:34:53;8.67;;;5.10;;
42972;SDS011;28610;51.214;6.962;2023-04-24T01:37:39;7.20;;;4.70;;
42972;SDS011;28610;51.214;6.962;2023-04-24T01:40:26;10.93;;;5.20;;
42972;SDS011;28610;51.214;6.962;2023-04-24T01:43:12;9.10;;;5.27;;
42972;SDS011;28610;51.214;6.962;2023-04-24T01:45:58;14.57;;;6.03;;
42972;SDS011;28610;51.214;6.962;2023-04-24T01:48:44;9.40;;;5.80;;
42972;SDS011;28610;51.214;6.962;2023-04-24T01:51:30;9.67;;;5.93;;
42972;SDS011;28610;51.214;6.962;2023-04-24T01:54:16;11.17;;;6.07;;
42972;SDS011;28610;51.214;6.962;2023-04-24T01:57:03;9.77;;;5.70;;
42972;SDS011;28610;51.214;6.962;2023-04-24T01:59:48;13.07;;;6.33;;
42972;SDS011;28610;51.214;6.962;2023-04-24T02:02:34;10.00;;;6.43;;
42972;SDS011;28610;51.214;6.962;2023-04-24T02:05:20;8.43;;;6.20;;
42972;SDS011;28610;51.214;6.962;2023-04-24T02:08:06;10.33;;;6.27;;
42972;SDS011;28610;51.214;6.962;2023-04-24T02:10:51;11.13;;;6.80;;
42972;SDS011;28610;51.214;6.962;2023-04-24T02:13:39;11.93;;;7.07;;
42972;SDS011;28610;51.214;6.962;2023-04-24T02:16:25;15.33;;;7.43;;
42972;SDS011;28610;51.214;6.962;2023-04-24T02:19:11;12.07;;;7.90;;
42972;SDS011;28610;51.214;6.962;2023-04-24T02:21:56;11.90;;;7.70;;
42972;SDS011;28610;51.214;6.962;2023-04-24T02:24:42;13.73;;;8.20;;
42972;SDS011;28610;51.214;6.962;2023-04-24T02:27:28;13.93;;;7.80;;
42972;SDS011;28610;51.214;6.962;2023-04-24T02:30:15;17.13;;;9.13;;
42972;SDS011;28610;51.214;6.962;2023-04-24T02:33:01;15.83;;;9.33;;
42972;SDS011;28610;51.214;6.962;2023-04-24T02:35:47;14.97;;;8.93;;
42972;SDS011;28610;51.214;6.962;2023-04-24T02:38:32;15.17;;;8.90;;
42972;SDS011;28610;51.214;6.962;2023-04-24T02:41:18;15.43;;;9.63;;
42972;SDS011;28610;51.214;6.962;2023-04-24T02:44:04;18.30;;;10.23;;
42972;SDS011;28610;51.214;6.962;2023-04-24T02:46:51;18.07;;;9.97;;
42972;SDS011;28610;51.214;6.962;2023-04-24T02:49:36;15.23;;;9.83;;
42972;SDS011;28610;51.214;6.962;2023-04-24T02:52:22;17.70;;;9.93;;
42972;SDS011;28610;51.214;6.962;2023-04-24T02:55:08;16.00;;;9.50;;
42972;SDS011;28610;51.214;6.962;2023-04-24T02:57:53;18.50;;;10.47;;
42972;SDS011;28610;51.214;6.962;2023-04-24T03:00:39;16.00;;;9.50;;
42972;SDS011;28610;51.214;6.962;2023-04-24T03:03:26;20.00;;;10.27;;
42972;SDS011;28610;51.214;6.962;2023-04-24T03:06:11;15.80;;;10.20;;
42972;SDS011;28610;51.214;6.962;2023-04-24T03:08:57;19.23;;;10.73;;
42972;SDS011;28610;51.214;6.962;2023-04-24T03:11:42;16.97;;;10.20;;
42972;SDS011;28610;51.214;6.962;2023-04-24T03:14:28;17.50;;;10.57;;
42972;SDS011;28610;51.214;6.962;2023-04-24T03:17:14;19.03;;;10.37;;
42972;SDS011;28610;51.214;6.962;2023-04-24T03:20:01;16.40;;;9.53;;
42972;SDS011;28610;51.214;6.962;2023-04-24T03:22:48;17.90;;;10.37;;
42972;SDS011;28610;51.214;6.962;2023-04-24T03:25:34;19.37;;;10.97;;
42972;SDS011;28610;51.214;6.962;2023-04-24T03:28:19;15.17;;;9.50;;
42972;SDS011;28610;51.214;6.962;2023-04-24T03:31:05;18.17;;;10.73;;
42972;SDS011;28610;51.214;6.962;2023-04-24T03:33:51;17.77;;;10.50;;
42972;SDS011;28610;51.214;6.962;2023-04-24T03:36:37;18.97;;;10.90;;
42972;SDS011;28610;51.214;6.962;2023-04-24T03:39:23;21.13;;;10.20;;
42972;SDS011;28610;51.214;6.962;2023-04-24T03:42:09;19.13;;;10.50;;
42972;SDS011;28610;51.214;6.962;2023-04-24T03:44:55;17.13;;;10.87;;
42972;SDS011;28610;51.214;6.962;2023-04-24T03:47:40;18.87;;;10.97;;
42972;SDS011;28610;51.214;6.962;2023-04-24T03:50:26;21.80;;;10.50;;
42972;SDS011;28610;51.214;6.962;2023-04-24T03:53:13;22.00;;;10.73;;
42972;SDS011;28610;51.214;6.962;2023-04-24T03:56:00;21.37;;;11.00;;
42972;SDS011;28610;51.214;6.962;2023-04-24T03:58:45;20.07;;;11.23;;
42972;SDS011;28610;51.214;6.962;2023-04-24T04:01:31;18.20;;;11.60;;
42972;SDS011;28610;51.214;6.962;2023-04-24T04:04:20;17.57;;;10.93;;
42972;SDS011;28610;51.214;6.962;2023-04-24T04:07:05;19.67;;;11.23;;
42972;SDS011;28610;51.214;6.962;2023-04-24T04:09:53;18.93;;;10.93;;
42972;SDS011;28610;51.214;6.962;2023-04-24T04:12:38;20.20;;;11.63;;
42972;SDS011;28610;51.214;6.962;2023-04-24T04:15:24;21.77;;;11.27;;
42972;SDS011;28610;51.214;6.962;2023-04-24T04:18:10;21.67;;;11.37;;
42972;SDS011;28610;51.214;6.962;2023-04-24T04:20:55;22.33;;;11.67;;
42972;SDS011;28610;51.214;6.962;2023-04-24T04:23:41;19.97;;;11.53;;
42972;SDS011;28610;51.214;6.962;2023-04-24T04:26:28;26.00;;;12.50;;
42972;SDS011;28610;51.214;6.962;2023-04-24T04:29:16;20.70;;;10.97;;
42972;SDS011;28610;51.214;6.962;2023-04-24T04:32:02;20.43;;;11.17;;
42972;SDS011;28610;51.214;6.962;2023-04-24T04:34:48;22.90;;;12.33;;
42972;SDS011;28610;51.214;6.962;2023-04-24T04:37:37;17.03;;;11.53;;
42972;SDS011;28610;51.214;6.962;2023-04-24T04:40:23;18.53;;;11.47;;
42972;SDS011;28610;51.214;6.962;2023-04-24T04:43:11;20.03;;;11.10;;
42972;SDS011;28610;51.214;6.962;2023-04-24T04:45:58;18.97;;;11.60;;
42972;SDS011;28610;51.214;6.962;2023-04-24T04:48:47;18.63;;;10.70;;
42972;SDS011;28610;51.214;6.962;2023-04-24T04:51:32;20.77;;;10.83;;
42972;SDS011;28610;51.214;6.962;2023-04-24T04:54:18;16.47;;;10.93;;
42972;SDS011;28610;51.214;6.962;2023-04-24T04:57:04;20.07;;;11.27;;
42972;SDS011;28610;51.214;6.962;2023-04-24T04:59:50;19.63;;;10.90;;
42972;SDS011;28610;51.214;6.962;2023-04-24T05:02:37;19.47;;;11.13;;
42972;SDS011;28610;51.214;6.962;2023-04-24T05:05:22;18.80;;;10.60;;
42972;SDS011;28610;51.214;6.962;2023-04-24T05:08:08;18.50;;;10.63;;
42972;SDS011;28610;51.214;6.962;2023-04-24T05:10:53;18.27;;;10.30;;
42972;SDS011;28610;51.214;6.962;2023-04-24T05:13:39;18.47;;;10.73;;
42972;SDS011;28610;51.214;6.962;2023-04-24T05:16:26;15.03;;;10.27;;
42972;SDS011;28610;51.214;6.962;2023-04-24T05:19:12;17.80;;;10.30;;
42972;SDS011;28610;51.214;6.962;2023-04-24T05:21:58;19.37;;;10.20;;
42972;SDS011;28610;51.214;6.962;2023-04-24T05:24:46;20.20;;;10.03;;
42972;SDS011;28610;51.214;6.962;2023-04-24T05:27:32;18.53;;;9.90;;
42972;SDS011;28610;51.214;6.962;2023-04-24T05:30:18;17.00;;;9.27;;
42972;SDS011;28610;51.214;6.962;2023-04-24T05:33:05;14.07;;;8.97;;
42972;SDS011;28610;51.214;6.962;2023-04-24T05:35:52;16.30;;;9.73;;
42972;SDS011;28610;51.214;6.962;2023-04-24T05:38:37;14.93;;;8.90;;
42972;SDS011;28610;51.214;6.962;2023-04-24T05:41:23;15.00;;;9.37;;
42972;SDS011;28610;51.214;6.962;2023-04-24T05:44:09;18.67;;;9.93;;
42972;SDS011;28610;51.214;6.962;2023-04-24T05:46:55;18.20;;;9.87;;
42972;SDS011;28610;51.214;6.962;2023-04-24T05:49:42;17.00;;;10.27;;
42972;SDS011;28610;51.214;6.962;2023-04-24T05:52:28;18.80;;;10.50;;
42972;SDS011;28610;51.214;6.962;2023-04-24T05:55:13;21.20;;;11.37;;
42972;SDS011;28610;51.214;6.962;2023-04-24T05:58:01;19.13;;;11.03;;
42972;SDS011;28610;51.214;6.962;2023-04-24T06:00:47;18.57;;;11.10;;
42972;SDS011;28610;51.214;6.962;2023-04-24T06:03:33;21.10;;;11.93;;
42972;SDS011;28610;51.214;6.962;2023-04-24T06:06:20;21.10;;;12.30;;
42972;SDS011;28610;51.214;6.962;2023-04-24T06:09:05;20.80;;;11.80;;
42972;SDS011;28610;51.214;6.962;2023-04-24T06:11:51;18.77;;;10.93;;
42972;SDS011;28610;51.214;6.962;2023-04-24T06:14:37;21.33;;;12.27;;
42972;SDS011;28610;51.214;6.962;2023-04-24T06:17:22;16.77;;;11.23;;
42972;SDS011;28610;51.214;6.962;2023-04-24T06:20:08;21.70;;;11.10;;
42972;SDS011;28610;51.214;6.962;2023-04-24T06:22:56;17.30;;;10.50;;
42972;SDS011;28610;51.214;6.962;2023-04-24T06:25:42;13.23;;;8.50;;
42972;SDS011;28610;51.214;6.962;2023-04-24T06:28:27;16.17;;;9.23;;
42972;SDS011;28610;51.214;6.962;2023-04-24T06:31:13;23.63;;;9.83;;
42972;SDS011;28610;51.214;6.962;2023-04-24T06:33:59;14.13;;;8.70;;
42972;SDS011;28610;51.214;6.962;2023-04-24T06:36:46;14.67;;;8.30;;
42972;SDS011;28610;51.214;6.962;2023-04-24T06:39:33;12.67;;;8.90;;
42972;SDS011;28610;51.214;6.962;2023-04-24T06:42:18;17.63;;;9.17;;
42972;SDS011;28610;51.214;6.962;2023-04-24T06:45:05;14.80;;;8.70;;
42972;SDS011;28610;51.214;6.962;2023-04-24T06:47:51;16.60;;;8.80;;
42972;SDS011;28610;51.214;6.962;2023-04-24T06:50:37;15.33;;;8.63;;
42972;SDS011;28610;51.214;6.962;2023-04-24T06:53:22;12.77;;;8.67;;
42972;SDS011;28610;51.214;6.962;2023-04-24T06:56:10;13.70;;;8.27;;
42972;SDS011;28610;51.214;6.962;2023-04-24T06:58:56;14.17;;;8.47;;
42972;SDS011;28610;51.214;6.962;2023-04-24T07:01:42;15.30;;;8.43;;
42972;SDS011;28610;51.214;6.962;2023-04-24T07:04:27;16.17;;;8.73;;
42972;SDS011;28610;51.214;6.962;2023-04-24T07:07:13;15.17;;;8.80;;
42972;SDS011;28610;51.214;6.962;2023-04-24T07:10:00;16.27;;;8.97;;
42972;SDS011;28610;51.214;6.962;2023-04-24T07:12:48;12.77;;;7.33;;
42972;SDS011;28610;51.214;6.962;2023-04-24T07:15:34;13.47;;;7.90;;
42972;SDS011;28610;51.214;6.962;2023-04-24T07:18:19;12.43;;;7.60;;
42972;SDS011;28610;51.214;6.962;2023-04-24T07:21:05;14.37;;;7.97;;
42972;SDS011;28610;51.214;6.962;2023-04-24T07:23:51;11.87;;;7.40;;
42972;SDS011;28610;51.214;6.962;2023-04-24T07:26:37;12.83;;;7.60;;
42972;SDS011;28610;51.214;6.962;2023-04-24T07:29:25;11.87;;;7.10;;
42972;SDS011;28610;51.214;6.962;2023-04-24T07:32:10;9.87;;;6.47;;
42972;SDS011;28610;51.214;6.962;2023-04-24T07:34:56;10.17;;;6.27;;
42972;SDS011;28610;51.214;6.962;2023-04-24T07:37:42;11.17;;;5.60;;
42972;SDS011;28610;51.214;6.962;2023-04-24T07:40:29;8.00;;;5.40;;
42972;SDS011;28610;51.214;6.962;2023-04-24T07:43:14;8.93;;;5.40;;
42972;SDS011;28610;51.214;6.962;2023-04-24T07:46:02;8.07;;;4.93;;
42972;SDS011;28610;51.214;6.962;2023-04-24T07:48:47;7.37;;;4.63;;
42972;SDS011;28610;51.214;6.962;2023-04-24T07:51:33;6.57;;;3.70;;
42972;SDS011;28610;51.214;6.962;2023-04-24T07:54:22;4.73;;;3.27;;
42972;SDS011;28610;51.214;6.962;2023-04-24T07:57:07;2.93;;;2.73;;
42972;SDS011;28610;51.214;6.962;2023-04-24T07:59:54;2.93;;;2.60;;
42972;SDS011;28610;51.214;6.962;2023-04-24T08:02:42;2.80;;;2.60;;
42972;SDS011;28610;51.214;6.962;2023-04-24T08:05:28;2.90;;;2.70;;
42972;SDS011;28610;51.214;6.962;2023-04-24T08:08:13;4.03;;;2.90;;
42972;SDS011;28610;51.214;6.962;2023-04-24T08:10:59;3.77;;;3.20;;
42972;SDS011;28610;51.214;6.962;2023-04-24T08:13:44;6.00;;;3.30;;
42972;SDS011;28610;51.214;6.962;2023-04-24T08:16:30;4.00;;;3.00;;
42972;SDS011;28610;51.214;6.962;2023-04-24T08:19:19;3.70;;;2.90;;
42972;SDS011;28610;51.214;6.962;2023-04-24T08:22:05;3.70;;;3.00;;
42972;SDS011;28610;51.214;6.962;2023-04-24T08:24:51;4.07;;;2.90;;
42972;SDS011;28610;51.214;6.962;2023-04-24T08:27:37;3.03;;;2.70;;
42972;SDS011;28610;51.214;6.962;2023-04-24T08:30:22;3.50;;;3.20;;
42972;SDS011;28610;51.214;6.962;2023-04-24T08:33:08;5.53;;;3.30;;
42972;SDS011;28610;51.214;6.962;2023-04-24T08:35:55;4.70;;;3.50;;
42972;SDS011;28610;51.214;6.962;2023-04-24T08:38:40;4.47;;;3.87;;
42972;SDS011;28610;51.214;6.962;2023-04-24T08:41:27;6.67;;;4.40;;
42972;SDS011;28610;51.214;6.962;2023-04-24T08:44:13;8.90;;;4.40;;
42972;SDS011;28610;51.214;6.962;2023-04-24T08:47:00;5.57;;;4.27;;
42972;SDS011;28610;51.214;6.962;2023-04-24T08:49:47;8.77;;;5.13;;
42972;SDS011;28610;51.214;6.962;2023-04-24T08:52:35;9.30;;;4.73;;
42972;SDS011;28610;51.214;6.962;2023-04-24T08:55:20;8.77;;;5.47;;
42972;SDS011;28610;51.214;6.962;2023-04-24T08:58:06;8.47;;;4.90;;
42972;SDS011;28610;51.214;6.962;2023-04-24T09:00:53;7.70;;;5.40;;
42972;SDS011;28610;51.214;6.962;2023-04-24T09:03:39;10.97;;;6.37;;
42972;SDS011;28610;51.214;6.962;2023-04-24T09:06:25;12.40;;;6.83;;
42972;SDS011;28610;51.214;6.962;2023-04-24T09:09:13;9.30;;;5.77;;
42972;SDS011;28610;51.214;6.962;2023-04-24T09:11:59;10.90;;;7.30;;
42972;SDS011;28610;51.214;6.962;2023-04-24T09:14:45;10.97;;;6.60;;
42972;SDS011;28610;51.214;6.962;2023-04-24T09:17:31;11.47;;;6.93;;
42972;SDS011;28610;51.214;6.962;2023-04-24T09:20:18;8.60;;;5.63;;
42972;SDS011;28610;51.214;6.962;2023-04-24T09:23:03;7.37;;;5.13;;
42972;SDS011;28610;51.214;6.962;2023-04-24T09:25:51;7.50;;;5.33;;
42972;SDS011;28610;51.214;6.962;2023-04-24T09:28:39;12.97;;;5.50;;
42972;SDS011;28610;51.214;6.962;2023-04-24T09:31:26;8.90;;;5.77;;
42972;SDS011;28610;51.214;6.962;2023-04-24T09:34:13;9.17;;;5.63;;
42972;SDS011;28610;51.214;6.962;2023-04-24T09:36:59;10.37;;;6.70;;
42972;SDS011;28610;51.214;6.962;2023-04-24T09:39:44;10.13;;;6.87;;
42972;SDS011;28610;51.214;6.962;2023-04-24T09:42:31;11.13;;;6.97;;
42972;SDS011;28610;51.214;6.962;2023-04-24T09:45:17;11.93;;;6.83;;
42972;SDS011;28610;51.214;6.962;2023-04-24T09:48:03;12.07;;;7.13;;
42972;SDS011;28610;51.214;6.962;2023-04-24T09:50:50;12.10;;;7.40;;
42972;SDS011;28610;51.214;6.962;2023-04-24T09:53:37;12.67;;;7.33;;
42972;SDS011;28610;51.214;6.962;2023-04-24T09:56:24;12.93;;;7.30;;
42972;SDS011;28610;51.214;6.962;2023-04-24T09:59:11;12.70;;;7.87;;
42972;SDS011;28610;51.214;6.962;2023-04-24T10:01:57;13.97;;;7.70;;
42972;SDS011;28610;51.214;6.962;2023-04-24T10:04:53;16.43;;;7.70;;
42972;SDS011;28610;51.214;6.962;2023-04-24T10:07:39;14.57;;;7.80;;
42972;SDS011;28610;51.214;6.962;2023-04-24T10:10:24;15.47;;;8.33;;
42972;SDS011;28610;51.214;6.962;2023-04-24T10:13:12;17.17;;;8.47;;
42972;SDS011;28610;51.214;6.962;2023-04-24T10:15:59;17.67;;;8.53;;
42972;SDS011;28610;51.214;6.962;2023-04-24T10:18:45;18.23;;;9.27;;
42972;SDS011;28610;51.214;6.962;2023-04-24T10:21:31;16.90;;;8.70;;
42972;SDS011;28610;51.214;6.962;2023-04-24T10:24:17;19.63;;;10.13;;
42972;SDS011;28610;51.214;6.962;2023-04-24T10:27:05;18.60;;;10.17;;
42972;SDS011;28610;51.214;6.962;2023-04-24T10:29:51;24.97;;;10.80;;
42972;SDS011;28610;51.214;6.962;2023-04-24T10:32:40;23.17;;;11.30;;
42972;SDS011;28610;51.214;6.962;2023-04-24T10:35:25;20.80;;;12.03;;
42972;SDS011;28610;51.214;6.962;2023-04-24T10:38:12;24.37;;;11.20;;
42972;SDS011;28610;51.214;6.962;2023-04-24T10:41:06;29.90;;;12.67;;
42972;SDS011;28610;51.214;6.962;2023-04-24T10:44:03;27.27;;;12.97;;
42972;SDS011;28610;51.214;6.962;2023-04-24T10:46:52;26.13;;;12.17;;
42972;SDS011;28610;51.214;6.962;2023-04-24T10:49:39;27.20;;;12.13;;
42972;SDS011;28610;51.214;6.962;2023-04-24T10:52:30;32.83;;;12.87;;
42972;SDS011;28610;51.214;6.962;2023-04-24T10:55:43;20.40;;;10.10;;
42972;SDS011;28610;51.214;6.962;2023-04-24T10:58:35;20.07;;;8.60;;
42972;SDS011;28610;51.214;6.962;2023-04-24T11:01:24;18.43;;;8.33;;
42972;SDS011;28610;51.214;6.962;2023-04-24T11:04:10;18.20;;;8.70;;
42972;SDS011;28610;51.214;6.962;2023-04-24T11:06:57;18.20;;;8.67;;
42972;SDS011;28610;51.214;6.962;2023-04-24T11:09:43;20.07;;;9.17;;
42972;SDS011;28610;51.214;6.962;2023-04-24T11:12:29;23.37;;;10.50;;
42972;SDS011;28610;51.214;6.962;2023-04-24T11:15:14;20.60;;;10.73;;
42972;SDS011;28610;51.214;6.962;2023-04-24T11:18:03;25.60;;;11.53;;
42972;SDS011;28610;51.214;6.962;2023-04-24T11:20:49;19.63;;;9.47;;
42972;SDS011;28610;51.214;6.962;2023-04-24T11:23:37;25.93;;;10.57;;
42972;SDS011;28610;51.214;6.962;2023-04-24T11:26:23;26.63;;;9.13;;
42972;SDS011;28610;51.214;6.962;2023-04-24T11:29:14;23.70;;;8.80;;
42972;SDS011;28610;51.214;6.962;2023-04-24T11:31:59;20.23;;;8.83;;
42972;SDS011;28610;51.214;6.962;2023-04-24T11:35:00;20.33;;;8.33;;
42972;SDS011;28610;51.214;6.962;2023-04-24T11:37:46;21.17;;;8.40;;
42972;SDS011;28610;51.214;6.962;2023-04-24T11:40:34;22.30;;;7.90;;
42972;SDS011;28610;51.214;6.962;2023-04-24T11:43:20;20.63;;;7.33;;
42972;SDS011;28610;51.214;6.962;2023-04-24T11:46:06;21.90;;;7.23;;
42972;SDS011;28610;51.214;6.962;2023-04-24T11:48:51;15.47;;;7.30;;
42972;SDS011;28610;51.214;6.962;2023-04-24T11:51:37;20.10;;;7.00;;
42972;SDS011;28610;51.214;6.962;2023-04-24T11:54:23;16.90;;;6.87;;
42972;SDS011;28610;51.214;6.962;2023-04-24T11:57:10;17.20;;;7.63;;
42972;SDS011;28610;51.214;6.962;2023-04-24T11:59:55;14.93;;;6.90;;
42972;SDS011;28610;51.214;6.962;2023-04-24T12:02:40;20.70;;;7.70;;
42972;SDS011;28610;51.214;6.962;2023-04-24T12:05:27;18.67;;;7.43;;
42972;SDS011;28610;51.214;6.962;2023-04-24T12:08:26;19.77;;;7.63;;
42972;SDS011;28610;51.214;6.962;2023-04-24T12:11:14;17.17;;;7.37;;
42972;SDS011;28610;51.214;6.962;2023-04-24T12:14:10;16.17;;;6.67;;
42972;SDS011;28610;51.214;6.962;2023-04-24T12:16:56;18.87;;;7.40;;
42972;SDS011;28610;51.214;6.962;2023-04-24T12:19:45;20.40;;;8.00;;
42972;SDS011;28610;51.214;6.962;2023-04-24T12:22:42;19.37;;;7.70;;
42972;SDS011;28610;51.214;6.962;2023-04-24T12:25:29;25.50;;;7.23;;
42972;SDS011;28610;51.214;6.962;2023-04-24T12:28:16;15.53;;;6.50;;
42972;SDS011;28610;51.214;6.962;2023-04-24T12:31:03;19.57;;;7.10;;
42972;SDS011;28610;51.214;6.962;2023-04-24T12:33:49;21.23;;;6.70;;
42972;SDS011;28610;51.214;6.962;2023-04-24T12:36:35;17.03;;;6.40;;
42972;SDS011;28610;51.214;6.962;2023-04-24T12:39:20;16.83;;;5.80;;
42972;SDS011;28610;51.214;6.962;2023-04-24T12:42:08;14.73;;;6.33;;
42972;SDS011;28610;51.214;6.962;2023-04-24T12:44:56;14.83;;;6.17;;
42972;SDS011;28610;51.214;6.962;2023-04-24T12:47:44;16.57;;;5.60;;
42972;SDS011;28610;51.214;6.962;2023-04-24T12:50:30;14.10;;;5.53;;
42972;SDS011;28610;51.214;6.962;2023-04-24T12:53:15;12.23;;;4.90;;
42972;SDS011;28610;51.214;6.962;2023-04-24T12:56:01;12.87;;;5.17;;
42972;SDS011;28610;51.214;6.962;2023-04-24T12:58:47;8.47;;;3.77;;
42972;SDS011;28610;51.214;6.962;2023-04-24T13:01:33;9.57;;;4.10;;
42972;SDS011;28610;51.214;6.962;2023-04-24T13:04:20;7.43;;;3.50;;
42972;SDS011;28610;51.214;6.962;2023-04-24T13:07:06;12.43;;;3.73;;
42972;SDS011;28610;51.214;6.962;2023-04-24T13:09:51;8.90;;;3.70;;
42972;SDS011;28610;51.214;6.962;2023-04-24T13:12:37;7.53;;;3.57;;
42972;SDS011;28610;51.214;6.962;2023-04-24T13:15:23;9.10;;;3.40;;
42972;SDS011;28610;51.214;6.962;2023-04-24T13:18:09;7.07;;;3.40;;
42972;SDS011;28610;51.214;6.962;2023-04-24T13:20:56;5.70;;;3.30;;
42972;SDS011;28610;51.214;6.962;2023-04-24T13:23:42;10.40;;;3.40;;
42972;SDS011;28610;51.214;6.962;2023-04-24T13:26:27;6.90;;;3.33;;
42972;SDS011;28610;51.214;6.962;2023-04-24T13:29:13;8.23;;;3.20;;
42972;SDS011;28610;51.214;6.962;2023-04-24T13:31:58;7.67;;;3.40;;
42972;SDS011;28610;51.214;6.962;2023-04-24T13:34:45;6.40;;;3.43;;
42972;SDS011;28610;51.214;6.962;2023-04-24T13:37:32;6.07;;;3.20;;
42972;SDS011;28610;51.214;6.962;2023-04-24T13:40:18;7.77;;;3.30;;
42972;SDS011;28610;51.214;6.962;2023-04-24T13:43:03;8.00;;;3.37;;
42972;SDS011;28610;51.214;6.962;2023-04-24T13:45:49;6.07;;;3.30;;
42972;SDS011;28610;51.214;6.962;2023-04-24T13:48:35;5.47;;;3.30;;
42972;SDS011;28610;51.214;6.962;2023-04-24T13:51:20;8.43;;;3.83;;
42972;SDS011;28610;51.214;6.962;2023-04-24T13:54:07;9.07;;;3.60;;
42972;SDS011;28610;51.214;6.962;2023-04-24T13:56:53;6.13;;;3.57;;
42972;SDS011;28610;51.214;6.962;2023-04-24T13:59:39;8.97;;;3.50;;
42972;SDS011;28610;51.214;6.962;2023-04-24T14:02:25;6.33;;;3.37;;
42972;SDS011;28610;51.214;6.962;2023-04-24T14:05:10;8.20;;;3.23;;
42972;SDS011;28610;51.214;6.962;2023-04-24T14:07:57;7.53;;;3.43;;
42972;SDS011;28610;51.214;6.962;2023-04-24T14:10:44;5.20;;;3.20;;
42972;SDS011;28610;51.214;6.962;2023-04-24T14:13:30;6.90;;;3.47;;
42972;SDS011;28610;51.214;6.962;2023-04-24T14:16:16;7.63;;;3.30;;
42972;SDS011;28610;51.214;6.962;2023-04-24T14:19:02;9.20;;;3.33;;
42972;SDS011;28610;51.214;6.962;2023-04-24T14:21:49;6.80;;;3.63;;
42972;SDS011;28610;51.214;6.962;2023-04-24T14:24:34;10.40;;;3.50;;
42972;SDS011;28610;51.214;6.962;2023-04-24T14:27:21;9.73;;;3.60;;
42972;SDS011;28610;51.214;6.962;2023-04-24T14:30:07;6.50;;;3.47;;
42972;SDS011;28610;51.214;6.962;2023-04-24T14:32:53;8.77;;;3.33;;
42972;SDS011;28610;51.214;6.962;2023-04-24T14:35:39;8.63;;;3.53;;
42972;SDS011;28610;51.214;6.962;2023-04-24T14:38:25;7.70;;;3.30;;
42972;SDS011;28610;51.214;6.962;2023-04-24T14:41:11;6.63;;;3.40;;
42972;SDS011;28610;51.214;6.962;2023-04-24T14:43:59;8.50;;;3.40;;
42972;SDS011;28610;51.214;6.962;2023-04-24T14:46:44;4.17;;;3.00;;
42972;SDS011;28610;51.214;6.962;2023-04-24T14:49:30;7.67;;;3.30;;
42972;SDS011;28610;51.214;6.962;2023-04-24T14:52:16;4.33;;;3.00;;
42972;SDS011;28610;51.214;6.962;2023-04-24T14:55:02;7.23;;;3.00;;
42972;SDS011;28610;51.214;6.962;2023-04-24T14:57:47;7.37;;;3.10;;
42972;SDS011;28610;51.214;6.962;2023-04-24T15:00:34;7.53;;;2.87;;
42972;SDS011;28610;51.214;6.962;2023-04-24T15:03:20;3.90;;;2.93;;
42972;SDS011;28610;51.214;6.962;2023-04-24T15:06:07;6.20;;;3.40;;
42972;SDS011;28610;51.214;6.962;2023-04-24T15:08:52;5.47;;;2.70;;
42972;SDS011;28610;51.214;6.962;2023-04-24T15:11:38;6.73;;;2.90;;
42972;SDS011;28610;51.214;6.962;2023-04-24T15:14:24;4.70;;;3.10;;
42972;SDS011;28610;51.214;6.962;2023-04-24T15:17:11;4.10;;;2.90;;
42972;SDS011;28610;51.214;6.962;2023-04-24T15:19:56;6.70;;;3.10;;
42972;SDS011;28610;51.214;6.962;2023-04-24T15:22:43;9.43;;;3.00;;
42972;SDS011;28610;51.214;6.962;2023-04-24T15:25:29;4.57;;;2.90;;
42972;SDS011;28610;51.214;6.962;2023-04-24T15:28:15;5.57;;;2.97;;
42972;SDS011;28610;51.214;6.962;2023-04-24T15:31:01;5.67;;;3.00;;
42972;SDS011;28610;51.214;6.962;2023-04-24T15:33:48;5.20;;;3.00;;
42972;SDS011;28610;51.214;6.962;2023-04-24T15:36:34;8.83;;;3.30;;
42972;SDS011;28610;51.214;6.962;2023-04-24T15:39:20;5.97;;;2.80;;
42972;SDS011;28610;51.214;6.962;2023-04-24T15:42:07;7.70;;;3.17;;
42972;SDS011;28610;51.214;6.962;2023-04-24T15:44:53;6.17;;;3.20;;
42972;SDS011;28610;51.214;6.962;2023-04-24T15:47:39;5.97;;;2.93;;
42972;SDS011;28610;51.214;6.962;2023-04-24T15:50:26;6.10;;;3.40;;
42972;SDS011;28610;51.214;6.962;2023-04-24T15:53:12;6.70;;;3.37;;
42972;SDS011;28610;51.214;6.962;2023-04-24T15:56:04;7.33;;;3.47;;
42972;SDS011;28610;51.214;6.962;2023-04-24T15:58:50;7.87;;;3.50;;
42972;SDS011;28610;51.214;6.962;2023-04-24T16:01:36;7.10;;;3.40;;
42972;SDS011;28610;51.214;6.962;2023-04-24T16:04:21;9.40;;;3.80;;
42972;SDS011;28610;51.214;6.962;2023-04-24T16:07:08;5.67;;;3.30;;
42972;SDS011;28610;51.214;6.962;2023-04-24T16:09:54;5.97;;;3.23;;
42972;SDS011;28610;51.214;6.962;2023-04-24T16:12:39;5.43;;;3.10;;
42972;SDS011;28610;51.214;6.962;2023-04-24T16:15:25;6.47;;;3.20;;
42972;SDS011;28610;51.214;6.962;2023-04-24T16:18:11;8.77;;;3.17;;
42972;SDS011;28610;51.214;6.962;2023-04-24T16:20:56;6.17;;;3.50;;
42972;SDS011;28610;51.214;6.962;2023-04-24T16:23:43;6.90;;;3.30;;
42972;SDS011;28610;51.214;6.962;2023-04-24T16:26:29;5.90;;;3.17;;
42972;SDS011;28610;51.214;6.962;2023-04-24T16:29:14;5.57;;;3.50;;
42972;SDS011;28610;51.214;6.962;2023-04-24T16:32:00;6.73;;;3.10;;